Time;durP1;ratioP1;P1;durP2;ratioP2;P2;SDS_P1;SDS_P2;PMS_P1;PMS_P2;Temp;Humidity;BMP_temperature;BMP_pressure;BME280_temperature;BME280_humidity;BME280_pressure;Samples;Min_cycle;Max_cycle;Signal;HPM_P1;HPM_P2
2024/01/19 00:02:01;;;;;;;0.90;0.70;;;;;;;-143.84;86.92;45138.56;5070115;28;20445;-61
2024/01/19 00:04:28;;;;;;;0.90;0.60;;;;;;;-143.84;87.11;45130.94;5070027;28;20441;-61
2024/01/19 00:06:55;;;;;;;0.90;0.70;;;;;;;-143.84;86.88;45134.75;5069801;28;20481;-61
2024/01/19 00:09:22;;;;;;;0.90;0.67;;;;;;;-143.84;86.79;45155.69;5070035;28;21248;-61
2024/01/19 00:11:49;;;;;;;1.67;1.23;;;;;;;-143.84;86.64;45151.91;5069807;28;20481;-61
2024/01/19 00:14:18;;;;;;;0.80;0.47;;;;;;;-143.84;86.62;45146.19;5070009;28;20447;-61
2024/01/19 00:16:45;;;;;;;0.90;0.60;;;;;;;-143.84;86.48;45144.28;5070126;28;20797;-61
2024/01/19 00:19:12;;;;;;;0.90;0.50;;;;;;;-143.84;86.49;45146.19;5069608;28;20437;-61
2024/01/19 00:21:44;;;;;;;0.80;0.40;;;;;;;-143.84;86.39;45129.03;5069917;28;20433;-61
2024/01/19 00:24:11;;;;;;;1.33;0.70;;;;;;;-143.84;86.16;45121.44;5069649;28;20451;-61
2024/01/19 00:26:39;;;;;;;0.80;0.60;;;;;;;-143.84;85.76;45110.00;5069708;28;21076;-61
2024/01/19 00:29:06;;;;;;;0.93;0.77;;;;;;;-143.84;86.02;45142.38;5068794;28;20437;-61
2024/01/19 00:31:36;;;;;;;0.80;0.50;;;;;;;-143.84;85.88;45115.72;5069648;28;20437;-61
2024/01/19 00:34:03;;;;;;;0.97;0.63;;;;;;;-143.84;85.63;45150.00;5076464;28;20452;-61
2024/01/19 00:36:30;;;;;;;0.80;0.40;;;;;;;-143.84;85.60;45130.94;5090007;28;20436;-61
2024/01/19 00:38:58;;;;;;;0.90;0.50;;;;;;;-143.84;85.96;45172.84;5089961;28;20493;-61
2024/01/19 00:41:26;;;;;;;4.17;1.20;;;;;;;-143.84;86.36;45113.81;5089840;28;20452;-61
2024/01/19 00:43:53;;;;;;;0.80;0.50;;;;;;;-143.84;86.32;45155.69;5089622;28;20454;-61
2024/01/19 00:46:20;;;;;;;2.40;1.13;;;;;;;-143.84;86.58;45148.09;5089569;28;20977;-61
2024/01/19 00:48:49;;;;;;;0.90;0.50;;;;;;;-143.84;86.42;45123.34;5089475;28;20501;-61
2024/01/19 00:51:16;;;;;;;1.53;0.73;;;;;;;-143.84;86.85;45148.09;5089378;28;20766;-61
2024/01/19 00:53:44;;;;;;;0.90;0.70;;;;;;;-143.84;86.94;45157.59;5089864;28;20459;-61
2024/01/19 00:56:11;;;;;;;1.57;0.90;;;;;;;-143.84;86.98;45165.22;5081916;28;20449;-61
2024/01/19 00:58:40;;;;;;;0.80;0.50;;;;;;;-143.84;86.93;45136.66;5069365;28;20479;-61
2024/01/19 01:01:07;;;;;;;0.90;0.70;;;;;;;-143.84;86.67;45153.81;5069445;28;20459;-61
2024/01/19 01:03:33;;;;;;;4.40;1.33;;;;;;;-143.84;86.71;45146.19;5069085;28;20432;-61
2024/01/19 01:06:03;;;;;;;0.80;0.60;;;;;;;-143.84;86.69;45142.38;5069207;28;20926;-61
2024/01/19 01:08:30;;;;;;;0.80;0.57;;;;;;;-143.84;86.48;45178.56;5069256;28;20445;-61
2024/01/19 01:10:57;;;;;;;0.90;0.60;;;;;;;-143.84;86.26;45148.09;5068939;28;20511;-61
2024/01/19 01:13:25;;;;;;;0.90;0.70;;;;;;;-143.84;86.34;45138.56;5069117;28;20956;-61
2024/01/19 01:15:53;;;;;;;0.80;0.50;;;;;;;-143.84;86.38;45132.84;5069123;28;21018;-61
2024/01/19 01:18:21;;;;;;;0.80;0.47;;;;;;;-143.84;86.58;45146.19;5069117;28;20925;-61
2024/01/19 01:20:50;;;;;;;1.00;0.70;;;;;;;-143.84;86.65;45161.41;5069231;28;20448;-61
2024/01/19 01:23:19;;;;;;;0.87;0.53;;;;;;;-143.84;86.20;45148.09;5068972;28;20468;-61
2024/01/19 01:25:46;;;;;;;1.93;1.50;;;;;;;-143.84;85.96;45144.28;5068757;28;20482;-61
2024/01/19 01:28:13;;;;;;;0.80;0.50;;;;;;;-143.84;85.70;45138.56;5068738;28;20813;-61
2024/01/19 01:30:41;;;;;;;0.80;0.57;;;;;;;-143.84;85.98;45127.13;5068749;28;20440;-61
2024/01/19 01:33:08;;;;;;;1.07;0.73;;;;;;;-143.84;85.94;45159.50;5068453;28;20437;-61
2024/01/19 01:35:36;;;;;;;0.90;0.50;;;;;;;-143.84;85.77;45142.38;5068478;28;20494;-61
2024/01/19 01:38:04;;;;;;;2.63;1.23;;;;;;;-143.84;86.00;45138.56;5068102;28;20535;-61
2024/01/19 01:40:32;;;;;;;1.30;1.20;;;;;;;-143.84;86.02;45151.91;5070170;28;20436;-61
2024/01/19 01:43:02;;;;;;;0.80;0.40;;;;;;;-143.84;86.00;45140.47;5072917;28;20471;-61
2024/01/19 01:45:29;;;;;;;0.83;0.63;;;;;;;-143.84;85.94;45121.44;5072802;28;20930;-61
2024/01/19 01:47:57;;;;;;;0.80;0.40;;;;;;;-143.84;85.75;45159.50;5072561;28;20484;-61
2024/01/19 01:50:24;;;;;;;0.90;0.60;;;;;;;-143.84;85.71;45130.94;5072839;28;20805;-61
2024/01/19 01:52:52;;;;;;;0.80;0.50;;;;;;;-143.84;85.59;45130.94;5072688;28;20445;-61
2024/01/19 01:55:19;;;;;;;0.93;0.50;;;;;;;-143.84;85.34;45125.22;5072987;28;20480;-61
2024/01/19 01:57:48;;;;;;;0.80;0.50;;;;;;;-143.84;85.17;45119.53;5072817;28;20507;-61
2024/01/19 02:00:18;;;;;;;1.93;1.80;;;;;;;-143.84;84.89;45150.00;5072672;28;20506;-61
2024/01/19 02:02:47;;;;;;;6.20;1.37;;;;;;;-143.84;84.52;45151.91;5072437;28;20440;-61
2024/01/19 02:05:14;;;;;;;1.10;1.00;;;;;;;-143.84;84.60;45129.03;5072583;28;21243;-61
2024/01/19 02:07:41;;;;;;;1.07;0.97;;;;;;;-143.84;84.53;45117.63;5072255;28;20479;-61
2024/01/19 02:10:09;;;;;;;0.80;0.50;;;;;;;-143.84;84.25;45121.44;5072323;28;21000;-61
2024/01/19 02:12:38;;;;;;;2.10;1.07;;;;;;;-143.84;84.11;45148.09;5072408;28;20433;-61
2024/01/19 02:15:18;;;;;;;0.80;0.47;;;;;;;-143.84;84.64;45148.09;5072267;28;20513;-61
2024/01/19 02:17:45;;;;;;;1.00;0.70;;;;;;;-143.84;84.69;45119.53;5072230;28;20535;-61
2024/01/19 02:20:12;;;;;;;0.80;0.50;;;;;;;-143.84;84.79;45136.66;5072347;28;20870;-61
2024/01/19 02:22:40;;;;;;;0.80;0.47;;;;;;;-143.84;84.67;45140.47;5072302;28;20934;-61
2024/01/19 02:25:09;;;;;;;0.80;0.50;;;;;;;-143.84;84.47;45142.38;5072173;28;20437;-61
2024/01/19 02:27:36;;;;;;;1.83;0.70;;;;;;;-143.84;84.20;45123.34;5072199;28;20480;-61
2024/01/19 02:30:04;;;;;;;0.90;0.60;;;;;;;-143.84;84.31;45136.66;5071990;28;21012;-61
2024/01/19 02:32:31;;;;;;;0.90;0.70;;;;;;;-143.84;84.17;45142.38;5071875;28;21018;-61
2024/01/19 02:34:58;;;;;;;2.80;1.13;;;;;;;-143.84;84.27;45153.81;5086725;28;20496;-61
2024/01/19 02:37:25;;;;;;;1.73;1.13;;;;;;;-143.84;84.34;45138.56;5092088;28;20504;-61
2024/01/19 02:39:52;;;;;;;0.90;0.70;;;;;;;-143.84;84.07;45129.03;5092179;28;20440;-61
2024/01/19 02:42:21;;;;;;;1.10;0.70;;;;;;;-143.84;84.05;45125.22;5092056;28;20435;-61
2024/01/19 02:44:48;;;;;;;1.63;1.20;;;;;;;-143.84;83.74;45144.28;5092073;28;20491;-61
2024/01/19 02:47:15;;;;;;;0.90;0.70;;;;;;;-143.84;83.67;45161.41;5091811;28;20475;-61
2024/01/19 02:49:42;;;;;;;0.90;0.77;;;;;;;-143.84;83.58;45169.03;5092135;28;20443;-61
2024/01/19 02:52:09;;;;;;;1.00;0.77;;;;;;;-143.84;83.46;45140.47;5090805;28;20436;-61
2024/01/19 02:54:36;;;;;;;1.13;1.03;;;;;;;-143.84;83.32;45163.31;5091829;28;20444;-61
2024/01/19 02:57:04;;;;;;;0.80;0.40;;;;;;;-143.84;83.28;45161.41;5078041;28;20854;-61
2024/01/19 02:59:32;;;;;;;0.80;0.50;;;;;;;-143.84;83.53;45163.31;5071455;28;20437;-61
2024/01/19 03:01:59;;;;;;;0.90;0.50;;;;;;;-143.84;83.21;45165.22;5071737;28;20518;-61
2024/01/19 03:04:27;;;;;;;0.80;0.50;;;;;;;-143.84;83.21;45130.94;5071685;28;20854;-61
2024/01/19 03:06:55;;;;;;;0.90;0.70;;;;;;;-143.84;83.19;45142.38;5071301;28;20448;-61
2024/01/19 03:09:22;;;;;;;16.63;1.00;;;;;;;-143.84;82.92;45151.91;5071369;28;20447;-61
2024/01/19 03:11:49;;;;;;;0.90;0.70;;;;;;;-143.84;82.90;45161.41;5070974;28;20496;-61
2024/01/19 03:14:16;;;;;;;0.80;0.50;;;;;;;-143.84;82.76;45165.22;5071240;28;20859;-61
2024/01/19 03:16:45;;;;;;;1.00;0.90;;;;;;;-143.84;82.89;45140.47;5071426;28;20440;-61
2024/01/19 03:19:12;;;;;;;1.47;1.33;;;;;;;-143.84;82.60;45163.31;5071371;28;20436;-61
2024/01/19 03:21:39;;;;;;;0.90;0.77;;;;;;;-143.84;82.69;45155.69;5076592;28;20970;-61
2024/01/19 03:24:06;;;;;;;0.90;0.60;;;;;;;-143.84;82.57;45151.91;5082349;28;20856;-61
2024/01/19 03:26:33;;;;;;;0.80;0.40;;;;;;;-143.84;82.36;45146.19;5087541;28;20572;-61
2024/01/19 03:29:00;;;;;;;0.80;0.50;;;;;;;-143.84;82.67;45138.56;5091011;28;20513;-61
2024/01/19 03:31:28;;;;;;;0.80;0.60;;;;;;;-143.84;82.51;45144.28;5091118;28;20493;-61
2024/01/19 03:33:56;;;;;;;0.80;0.50;;;;;;;-143.84;82.15;45155.69;5085677;28;20861;-61
2024/01/19 03:36:23;;;;;;;0.80;0.40;;;;;;;-143.84;81.96;45134.75;5080189;28;21041;-61
2024/01/19 03:38:50;;;;;;;0.80;0.50;;;;;;;-143.84;81.64;45136.66;5090955;28;20505;-61
2024/01/19 03:41:17;;;;;;;2.80;0.80;;;;;;;-143.84;81.93;45129.03;5090844;28;20444;-61
2024/01/19 03:43:45;;;;;;;1.43;0.87;;;;;;;-143.84;82.14;45136.66;5090808;28;20440;-61
2024/01/19 03:46:12;;;;;;;0.80;0.77;;;;;;;-143.84;82.15;45148.09;5090946;28;21309;-61
2024/01/19 03:48:39;;;;;;;1.30;0.63;;;;;;;-143.84;82.16;45148.09;5090855;28;20552;-61
2024/01/19 03:51:07;;;;;;;0.80;0.40;;;;;;;-143.84;82.31;45144.28;5091043;28;20505;-61
2024/01/19 03:53:35;;;;;;;0.97;0.80;;;;;;;-143.84;82.03;45115.72;5090815;28;20998;-61
2024/01/19 03:56:02;;;;;;;0.90;0.63;;;;;;;-143.84;81.97;45151.91;5090598;28;20432;-61
2024/01/19 03:58:29;;;;;;;1.87;1.37;;;;;;;-143.84;81.68;45151.91;5090645;28;20855;-61
2024/01/19 04:00:56;;;;;;;0.80;0.40;;;;;;;-143.84;81.10;45132.84;5090474;28;20440;-61
2024/01/19 04:03:23;;;;;;;1.00;0.70;;;;;;;-143.84;81.02;45148.09;5090399;28;20815;-61
2024/01/19 04:05:50;;;;;;;0.80;0.50;;;;;;;-143.84;80.71;45163.31;5090594;28;20448;-61
2024/01/19 04:08:19;;;;;;;0.80;0.40;;;;;;;-143.84;80.15;45161.41;5090381;28;20532;-61
2024/01/19 04:10:46;;;;;;;0.90;0.60;;;;;;;-143.84;80.41;45161.41;5090148;28;20819;-61
2024/01/19 04:13:13;;;;;;;1.27;0.80;;;;;;;-143.84;80.10;45136.66;5090511;28;20444;-61
2024/01/19 04:15:40;;;;;;;1.37;0.60;;;;;;;-143.84;80.30;45157.59;5090251;28;20436;-61
2024/01/19 04:18:07;;;;;;;0.87;0.77;;;;;;;-143.84;80.14;45148.09;5090377;28;20443;-61
2024/01/19 04:20:34;;;;;;;0.80;0.50;;;;;;;-143.84;79.90;45136.66;5090130;28;20440;-61
2024/01/19 04:23:01;;;;;;;0.90;0.70;;;;;;;-143.84;80.31;45127.13;5088883;28;20467;-61
2024/01/19 04:25:30;;;;;;;0.90;0.60;;;;;;;-143.84;80.07;45129.03;5089923;28;20443;-61
2024/01/19 04:27:57;;;;;;;1.50;1.20;;;;;;;-143.84;80.08;45148.09;5089864;28;20479;-61
2024/01/19 04:30:24;;;;;;;1.00;0.90;;;;;;;-143.84;80.10;45138.56;5089544;28;20490;-61
2024/01/19 04:32:51;;;;;;;0.90;0.63;;;;;;;-143.84;80.22;45148.09;5089698;28;20489;-61
2024/01/19 04:35:18;;;;;;;0.80;0.60;;;;;;;-143.84;80.05;45167.13;5089102;28;20443;-60
2024/01/19 04:37:45;;;;;;;0.80;0.53;;;;;;;-143.84;79.96;45151.91;5089364;28;20448;-61
2024/01/19 04:40:12;;;;;;;0.90;0.60;;;;;;;-143.84;80.01;45157.59;5089818;28;20436;-61
2024/01/19 04:42:41;;;;;;;0.87;0.70;;;;;;;-143.84;79.88;45148.09;5090097;28;20517;-61
2024/01/19 04:45:09;;;;;;;1.07;0.60;;;;;;;-143.84;79.87;45136.66;5090099;28;20436;-61
2024/01/19 04:47:36;;;;;;;3.70;0.87;;;;;;;-143.84;80.08;45174.75;5089771;28;20527;-60
2024/01/19 04:50:03;;;;;;;0.80;0.40;;;;;;;-143.84;80.20;45151.91;5089697;28;20641;-61
2024/01/19 04:52:30;;;;;;;0.90;0.60;;;;;;;-143.84;79.71;45138.56;5089817;28;20433;-61
2024/01/19 04:54:57;;;;;;;1.07;0.60;;;;;;;-143.84;79.37;45151.91;5089183;28;20439;-61
2024/01/19 04:57:24;;;;;;;0.90;0.50;;;;;;;-143.84;79.62;45134.75;5089551;28;20447;-61
2024/01/19 04:59:53;;;;;;;0.80;0.40;;;;;;;-143.84;79.80;45148.09;5089875;28;20505;-61
2024/01/19 05:02:20;;;;;;;0.80;0.50;;;;;;;-143.84;80.29;45132.84;5089429;28;20490;-61
2024/01/19 05:04:47;;;;;;;1.17;0.70;;;;;;;-143.84;80.04;45144.28;5089311;28;20518;-61
2024/01/19 05:07:14;;;;;;;3.33;1.70;;;;;;;-143.84;79.79;45130.94;5089305;28;21011;-61
2024/01/19 05:09:41;;;;;;;2.30;0.70;;;;;;;-143.84;79.53;45129.03;5089390;28;20494;-61
2024/01/19 05:12:08;;;;;;;0.90;0.40;;;;;;;-143.84;79.56;45144.28;5089101;28;20548;-61
2024/01/19 05:14:35;;;;;;;1.30;0.80;;;;;;;-143.84;79.71;45136.66;5088846;28;20436;-61
2024/01/19 05:17:04;;;;;;;0.80;0.50;;;;;;;-143.84;80.19;45157.59;5089221;28;20451;-61
2024/01/19 05:19:31;;;;;;;1.10;0.90;;;;;;;-143.84;80.42;45146.19;5089062;28;20490;-61
2024/01/19 05:21:58;;;;;;;0.80;0.50;;;;;;;-143.84;80.15;45159.50;5089258;28;20854;-61
2024/01/19 05:24:26;;;;;;;0.80;0.50;;;;;;;-143.84;80.23;45132.84;5089232;28;20470;-61
2024/01/19 05:26:53;;;;;;;2.10;0.60;;;;;;;-143.84;80.24;45151.91;5088893;28;20436;-61
2024/01/19 05:29:20;;;;;;;0.90;0.70;;;;;;;-143.84;80.42;45151.91;5089085;28;20486;-61
2024/01/19 05:31:47;;;;;;;1.10;1.00;;;;;;;-143.84;80.26;45163.31;5085976;28;20856;-61
2024/01/19 05:34:16;;;;;;;0.97;0.87;;;;;;;-143.84;80.27;45155.69;5069075;28;20506;-61
2024/01/19 05:36:43;;;;;;;0.80;0.60;;;;;;;-143.84;79.93;45136.66;5068126;28;20515;-61
2024/01/19 05:39:10;;;;;;;0.80;0.40;;;;;;;-143.84;79.94;45157.59;5068357;28;20950;-61
2024/01/19 05:41:37;;;;;;;0.80;0.40;;;;;;;-143.84;79.58;45146.19;5068699;28;20445;-61
2024/01/19 05:44:04;;;;;;;0.80;0.40;;;;;;;-143.84;79.29;45148.09;5068922;28;20432;-61
2024/01/19 05:46:31;;;;;;;1.27;0.80;;;;;;;-143.84;79.22;45140.47;5068653;28;20440;-61
2024/01/19 05:48:58;;;;;;;0.80;0.60;;;;;;;-143.84;79.39;45150.00;5068984;28;20915;-60
2024/01/19 05:51:27;;;;;;;5.57;0.67;;;;;;;-143.84;79.28;45142.38;5068571;28;20505;-61
2024/01/19 05:53:54;;;;;;;0.80;0.60;;;;;;;-143.84;78.83;45153.81;5068614;28;20449;-61
2024/01/19 05:56:21;;;;;;;0.80;0.60;;;;;;;-143.84;78.58;45157.59;5068696;28;20443;-61
2024/01/19 05:58:48;;;;;;;0.80;0.40;;;;;;;-143.84;78.27;45129.03;5068470;28;20440;-61
2024/01/19 06:01:15;;;;;;;0.80;0.50;;;;;;;-143.84;77.97;45146.19;5068530;28;20456;-61
2024/01/19 06:03:42;;;;;;;1.27;1.17;;;;;;;-143.84;77.67;45127.13;5068485;28;21003;-61
2024/01/19 06:06:10;;;;;;;2.50;1.33;;;;;;;-143.84;77.88;45140.47;5068476;28;20445;-61
2024/01/19 06:08:38;;;;;;;0.90;0.57;;;;;;;-143.84;77.60;45129.03;5068245;28;20480;-61
2024/01/19 06:11:06;;;;;;;1.20;0.87;;;;;;;-143.84;77.39;45136.66;5068526;28;20863;-61
2024/01/19 06:13:33;;;;;;;1.30;1.20;;;;;;;-143.84;77.20;45157.59;5068564;28;20441;-61
2024/01/19 06:16:02;;;;;;;5.90;1.40;;;;;;;-143.84;77.26;45146.19;5068575;28;20496;-61
2024/01/19 06:18:29;;;;;;;0.80;0.47;;;;;;;-143.84;76.99;45150.00;5068596;28;20887;-61
2024/01/19 06:21:00;;;;;;;0.90;0.50;;;;;;;-143.84;76.93;45155.69;5068380;28;20444;-61
2024/01/19 06:23:27;;;;;;;0.80;0.60;;;;;;;-143.84;76.73;45163.31;5068555;28;20440;-61
2024/01/19 06:25:56;;;;;;;0.80;0.47;;;;;;;-143.84;76.37;45153.81;5068808;28;20452;-61
2024/01/19 06:28:23;;;;;;;0.80;0.50;;;;;;;-143.84;76.04;45121.44;5071775;28;20541;-61
2024/01/19 06:30:50;;;;;;;0.80;0.53;;;;;;;-143.84;75.61;45115.72;5071835;28;20432;-61
2024/01/19 06:33:17;;;;;;;1.53;0.80;;;;;;;-143.84;75.54;45129.03;5071816;28;20502;-61
2024/01/19 06:35:44;;;;;;;0.80;0.60;;;;;;;-143.84;75.29;45159.50;5071799;28;20452;-61
2024/01/19 06:38:11;;;;;;;0.80;0.50;;;;;;;-143.84;75.05;45144.28;5071983;28;20861;-61
2024/01/19 06:40:38;;;;;;;0.90;0.70;;;;;;;-143.84;74.71;45129.03;5071865;28;20441;-61
2024/01/19 06:43:07;;;;;;;1.47;0.93;;;;;;;-143.84;73.87;45159.50;5072083;28;20437;-61
2024/01/19 06:45:34;;;;;;;1.10;0.80;;;;;;;-143.84;73.83;45136.66;5071714;28;20440;-61
2024/01/19 06:48:01;;;;;;;0.80;0.40;;;;;;;-143.84;73.69;45130.94;5071617;28;20942;-61
2024/01/19 06:50:28;;;;;;;1.10;0.97;;;;;;;-143.84;73.42;45150.00;5071619;28;20433;-61
2024/01/19 06:52:55;;;;;;;1.10;0.97;;;;;;;-143.84;72.76;45132.84;5071677;28;20510;-61
2024/01/19 06:55:24;;;;;;;1.97;1.37;;;;;;;-143.84;72.71;45144.28;5071650;28;20447;-61
2024/01/19 06:57:52;;;;;;;0.90;0.80;;;;;;;-143.84;71.77;45129.03;5071705;28;20465;-61
2024/01/19 07:00:21;;;;;;;1.10;0.90;;;;;;;-143.84;71.19;45127.13;5071483;28;20444;-61
2024/01/19 07:02:49;;;;;;;1.10;0.53;;;;;;;-143.84;70.91;45140.47;5071618;28;20520;-61
2024/01/19 07:05:16;;;;;;;0.90;0.60;;;;;;;-143.84;70.74;45123.34;5071370;28;20467;-61
2024/01/19 07:07:43;;;;;;;0.90;0.70;;;;;;;-143.84;70.63;45134.75;5071293;28;20441;-61
2024/01/19 07:10:11;;;;;;;2.70;0.60;;;;;;;-143.84;69.71;45125.22;5070900;28;20833;-61
2024/01/19 07:12:38;;;;;;;0.90;0.70;;;;;;;-143.84;68.80;45140.47;5071775;28;20437;-61
2024/01/19 07:15:07;;;;;;;0.80;0.50;;;;;;;-143.84;67.41;45140.47;5071150;28;20511;-61
2024/01/19 07:17:35;;;;;;;3.10;2.43;;;;;;;-143.84;65.67;45169.03;5071349;28;20927;-61
2024/01/19 07:20:05;;;;;;;0.90;0.63;;;;;;;-143.84;64.41;45132.84;5070944;28;20950;-61
2024/01/19 07:22:32;;;;;;;6.43;0.77;;;;;;;-143.84;63.33;45140.47;5071122;28;20444;-61
2024/01/19 07:24:59;;;;;;;1.37;0.57;;;;;;;-143.84;61.50;45146.19;5070926;28;20475;-61
2024/01/19 07:27:26;;;;;;;0.90;0.60;;;;;;;-143.84;61.38;45110.00;5070873;28;20845;-61
2024/01/19 07:29:54;;;;;;;0.90;0.60;;;;;;;-143.84;59.91;45094.78;5070719;28;20484;-61
2024/01/19 07:32:24;;;;;;;1.10;0.60;;;;;;;-143.84;59.52;45104.28;5070241;28;20961;-61
2024/01/19 07:34:53;;;;;;;0.80;0.50;;;;;;;-143.84;60.04;45106.19;5070248;28;20444;-61
2024/01/19 07:37:20;;;;;;;0.80;0.40;;;;;;;-143.84;58.88;45115.72;5070406;28;20479;-61
2024/01/19 07:39:47;;;;;;;0.87;0.50;;;;;;;-143.84;57.46;45106.19;5070716;28;20437;-61
2024/01/19 07:42:14;;;;;;;1.73;0.77;;;;;;;-143.84;56.98;45125.22;5070696;28;20965;-61
2024/01/19 07:44:42;;;;;;;0.90;0.57;;;;;;;-143.84;57.19;45110.00;5070882;28;20852;-61
2024/01/19 07:47:09;;;;;;;1.30;0.63;;;;;;;-143.84;55.96;45111.91;5070516;28;20441;-61
2024/01/19 07:49:36;;;;;;;0.80;0.60;;;;;;;-143.84;54.78;45113.81;5070571;28;20489;-61
2024/01/19 07:52:05;;;;;;;1.10;0.90;;;;;;;-143.84;54.35;45113.81;5070710;28;20445;-61
2024/01/19 07:54:32;;;;;;;0.90;0.53;;;;;;;-143.84;52.03;45115.72;5070457;28;20882;-61
2024/01/19 07:56:59;;;;;;;1.77;0.83;;;;;;;-143.84;52.48;45087.16;5070275;28;20445;-61
2024/01/19 07:59:26;;;;;;;0.90;0.50;;;;;;;-143.84;51.06;45094.78;5070199;28;20530;-61
2024/01/19 08:01:53;;;;;;;0.80;0.40;;;;;;;-143.84;49.56;45121.44;5070306;28;21207;-61
2024/01/19 08:04:20;;;;;;;0.80;0.40;;;;;;;-143.84;49.04;45094.78;5070237;28;20926;-61
2024/01/19 08:06:47;;;;;;;1.00;0.70;;;;;;;-143.84;47.74;45087.16;5070305;28;20436;-61
2024/01/19 08:09:16;;;;;;;0.80;0.40;;;;;;;-143.84;47.77;45089.06;5070200;28;20492;-61
2024/01/19 08:11:43;;;;;;;0.90;0.70;;;;;;;-143.84;47.53;45098.56;5069899;28;20492;-61
2024/01/19 08:14:10;;;;;;;1.13;0.70;;;;;;;-143.84;47.89;45102.38;5070092;28;20490;-61
2024/01/19 08:16:37;;;;;;;0.90;0.53;;;;;;;-143.84;48.37;45111.91;5070001;28;20437;-61
2024/01/19 08:19:04;;;;;;;1.00;0.57;;;;;;;-143.84;48.45;45119.53;5070034;28;20869;-61
2024/01/19 08:21:31;;;;;;;1.27;0.90;;;;;;;-143.84;48.90;45089.06;5070308;28;20468;-61
2024/01/19 08:23:59;;;;;;;0.80;0.40;;;;;;;-143.84;48.64;45083.34;5069731;28;20440;-61
2024/01/19 08:26:28;;;;;;;0.80;0.50;;;;;;;-143.84;49.02;45085.25;5069809;28;20433;-61
2024/01/19 08:28:55;;;;;;;1.33;0.97;;;;;;;-143.84;49.48;45104.28;5069651;28;20982;-61
2024/01/19 08:31:24;;;;;;;0.90;0.60;;;;;;;-143.84;49.67;45111.91;5069720;28;20991;-61
2024/01/19 08:33:51;;;;;;;1.20;1.10;;;;;;;-143.84;50.41;45111.91;5069674;28;20522;-61
2024/01/19 08:36:23;;;;;;;1.07;0.87;;;;;;;-143.84;50.64;45096.66;5069661;28;20444;-61
2024/01/19 08:38:51;;;;;;;0.90;0.80;;;;;;;-143.84;50.96;45108.09;5069505;28;20459;-61
2024/01/19 08:41:18;;;;;;;0.90;0.67;;;;;;;-143.84;50.38;45098.56;5069581;28;20441;-61
2024/01/19 08:43:46;;;;;;;0.87;0.60;;;;;;;-143.84;50.75;45098.56;5069441;28;20449;-61
2024/01/19 08:46:13;;;;;;;1.53;1.43;;;;;;;-143.84;49.95;45096.66;5069744;28;20864;-61
2024/01/19 08:48:44;;;;;;;1.93;0.73;;;;;;;-143.84;49.74;45079.53;5069304;28;20429;-61
2024/01/19 08:51:19;;;;;;;3.13;1.50;;;;;;;-143.84;49.07;45092.88;5068709;28;20933;-61
2024/01/19 08:53:47;;;;;;;2.90;1.20;;;;;;;-143.84;48.13;45094.78;5069413;28;20471;-61
2024/01/19 08:56:20;;;;;;;1.20;1.10;;;;;;;-143.84;47.33;45090.97;5069453;28;20840;-61
2024/01/19 08:58:50;;;;;;;0.97;0.80;;;;;;;-143.84;46.30;45079.53;5069233;28;20448;-61
2024/01/19 09:01:17;;;;;;;1.10;0.70;;;;;;;-143.84;46.11;45085.25;5069149;28;20444;-61
2024/01/19 09:03:45;;;;;;;1.30;0.60;;;;;;;-143.84;46.47;45083.34;5069382;28;20456;-61
2024/01/19 09:06:12;;;;;;;0.90;0.63;;;;;;;-143.84;44.83;45070.00;5069424;28;20437;-61
2024/01/19 09:08:41;;;;;;;1.67;1.17;;;;;;;-143.84;44.98;45056.69;5069457;28;20506;-61
2024/01/19 09:11:09;;;;;;;0.90;0.57;;;;;;;-143.84;44.33;45073.81;5068953;28;20488;-61
2024/01/19 09:13:37;;;;;;;0.90;0.70;;;;;;;-143.84;43.59;45070.00;5069097;28;20957;-61
2024/01/19 09:16:07;;;;;;;0.80;0.50;;;;;;;-143.84;43.54;45066.22;5069218;28;20479;-61
2024/01/19 09:18:34;;;;;;;1.00;0.70;;;;;;;-143.84;43.46;45070.00;5069101;28;20433;-61
2024/01/19 09:21:01;;;;;;;1.10;1.00;;;;;;;-143.84;42.96;45071.91;5069031;28;20471;-61
2024/01/19 09:23:28;;;;;;;0.80;0.50;;;;;;;-143.84;42.36;45096.66;5068990;28;20425;-61
2024/01/19 09:25:55;;;;;;;1.00;0.50;;;;;;;-143.84;42.59;45068.13;5069145;28;20490;-61
2024/01/19 09:28:22;;;;;;;1.10;0.60;;;;;;;-143.84;41.65;45056.69;5069290;28;20433;-61
2024/01/19 09:30:49;;;;;;;0.90;0.60;;;;;;;-143.84;41.85;45070.00;5088705;28;20479;-61
2024/01/19 09:33:18;;;;;;;1.07;0.97;;;;;;;-143.84;40.70;45050.97;5089391;28;20949;-61
2024/01/19 09:35:45;;;;;;;1.23;0.63;;;;;;;-143.84;41.13;45075.72;5089052;28;20439;-61
2024/01/19 09:38:12;;;;;;;0.93;0.70;;;;;;;-143.84;41.03;45081.44;5089416;28;20439;-61
2024/01/19 09:40:43;;;;;;;1.10;0.70;;;;;;;-143.84;40.46;45075.72;5089145;28;20512;-61
2024/01/19 09:43:12;;;;;;;1.40;1.30;;;;;;;-143.84;39.59;45079.53;5089458;28;20497;-61
2024/01/19 09:45:41;;;;;;;1.10;1.00;;;;;;;-143.84;40.10;45033.84;5089344;28;20473;-61
2024/01/19 09:48:21;;;;;;;1.77;1.00;;;;;;;-143.84;39.53;45045.25;5089004;28;20807;-61
2024/01/19 09:50:53;;;;;;;1.30;0.80;;;;;;;-143.84;39.27;45049.06;5088870;28;20574;-61
2024/01/19 09:53:23;;;;;;;2.30;0.77;;;;;;;-143.84;39.65;45070.00;5089133;28;20431;-61
2024/01/19 09:55:50;;;;;;;1.43;0.90;;;;;;;-143.84;38.95;45052.88;5089115;28;20941;-61
2024/01/19 09:58:20;;;;;;;7.67;1.27;;;;;;;-143.84;39.27;45068.13;5088997;28;20818;-61
2024/01/19 10:00:50;;;;;;;0.90;0.60;;;;;;;-143.84;39.40;45056.69;5089460;28;20443;-61
2024/01/19 10:03:19;;;;;;;0.97;0.70;;;;;;;-143.84;38.67;45077.63;5093048;28;20455;-61
2024/01/19 10:05:48;;;;;;;0.90;0.70;;;;;;;-143.84;38.44;45077.63;5093009;28;20954;-61
2024/01/19 10:08:16;;;;;;;1.03;0.80;;;;;;;-143.84;37.93;45066.22;5092972;28;20447;-61
2024/01/19 10:10:44;;;;;;;1.10;0.50;;;;;;;-143.84;37.15;45070.00;5092568;28;20966;-61
2024/01/19 10:13:11;;;;;;;0.80;0.50;;;;;;;-143.84;37.45;45108.09;5093058;28;20905;-61
2024/01/19 10:15:38;;;;;;;0.80;0.40;;;;;;;-143.84;37.64;45060.50;5092927;28;20448;-61
2024/01/19 10:18:07;;;;;;;0.80;0.40;;;;;;;-143.84;37.92;45085.25;5093015;28;20497;-61
2024/01/19 10:20:38;;;;;;;0.80;0.30;;;;;;;-143.84;37.07;45071.91;5092636;28;20479;-61
2024/01/19 10:23:19;;;;;;;0.80;0.47;;;;;;;-143.84;37.73;45077.63;5092486;28;20440;-61
2024/01/19 10:25:47;;;;;;;0.90;0.60;;;;;;;-143.84;38.40;45052.88;5091561;28;20442;-61
2024/01/19 10:28:29;;;;;;;0.80;0.40;;;;;;;-143.84;38.43;45094.78;5091854;28;20963;-61
2024/01/19 10:31:14;;;;;;;0.80;0.50;;;;;;;-143.84;38.76;45089.06;5091463;28;20562;-61
2024/01/19 10:33:49;;;;;;;0.80;0.40;;;;;;;-143.84;37.95;45073.81;5092417;28;20463;-61
2024/01/19 10:36:17;;;;;;;0.80;0.40;;;;;;;-143.84;38.11;45068.13;5092059;28;20443;-61
2024/01/19 10:38:45;;;;;;;0.80;0.30;;;;;;;-143.84;38.61;45041.44;5092280;28;20894;-61
2024/01/19 10:41:15;;;;;;;0.80;0.40;;;;;;;-143.84;38.41;45033.84;5092415;28;20792;-61
2024/01/19 10:43:43;;;;;;;0.80;0.50;;;;;;;-143.84;38.92;45060.50;5091929;28;20438;-61
2024/01/19 10:46:24;;;;;;;0.80;0.40;;;;;;;-143.84;37.86;45062.41;5092177;28;20440;-61
2024/01/19 10:48:52;;;;;;;0.80;0.40;;;;;;;-143.84;37.38;45049.06;5091959;28;21008;-61
2024/01/19 10:51:21;;;;;;;0.80;0.40;;;;;;;-143.84;37.84;45054.78;5092068;28;20491;-61
2024/01/19 10:53:49;;;;;;;0.80;0.40;;;;;;;-143.84;37.55;45052.88;5091896;28;20444;-61
2024/01/19 10:56:21;;;;;;;0.80;0.40;;;;;;;-143.84;37.81;45056.69;5091888;28;20442;-61
2024/01/19 10:58:48;;;;;;;0.80;0.40;;;;;;;-143.84;37.91;45070.00;5091663;28;20529;-61
2024/01/19 11:01:17;;;;;;;0.80;0.30;;;;;;;-143.84;37.32;45037.66;5091823;28;20431;-61
2024/01/19 11:03:44;;;;;;;0.80;0.40;;;;;;;-143.84;37.88;45062.41;5091822;28;20448;-61
2024/01/19 11:06:12;;;;;;;1.00;0.60;;;;;;;-143.84;37.56;45052.88;5091811;28;21113;-61
2024/01/19 11:08:41;;;;;;;0.80;0.40;;;;;;;-143.84;37.76;45068.13;5091832;28;20817;-61
2024/01/19 11:11:09;;;;;;;0.80;0.40;;;;;;;-143.84;37.78;45047.16;5091295;28;20549;-61
2024/01/19 11:13:40;;;;;;;0.80;0.40;;;;;;;-143.84;37.84;45079.53;5090249;28;20440;-61
2024/01/19 11:16:12;;;;;;;1.23;1.13;;;;;;;-143.84;37.69;45058.59;5091502;28;20458;-61
2024/01/19 11:18:40;;;;;;;0.80;0.40;;;;;;;-143.84;37.50;45043.34;5091316;28;20535;-61
2024/01/19 11:21:08;;;;;;;0.80;0.40;;;;;;;-143.84;37.34;45033.84;5091466;28;20489;-61